sensor_id;sensor_type;location;lat;lon;timestamp;temperature;humidity
11650;DHT22;5881;48.522;7.682;2023-09-30T00:00:25;16.70;1.00
11650;DHT22;5881;48.522;7.682;2023-09-30T00:02:52;16.70;1.00
11650;DHT22;5881;48.522;7.682;2023-09-30T00:05:17;16.60;99.90
11650;DHT22;5881;48.522;7.682;2023-09-30T00:07:45;16.60;99.90
11650;DHT22;5881;48.522;7.682;2023-09-30T00:10:11;16.50;99.90
11650;DHT22;5881;48.522;7.682;2023-09-30T00:12:37;16.50;1.00
11650;DHT22;5881;48.522;7.682;2023-09-30T00:15:02;16.40;1.00
11650;DHT22;5881;48.522;7.682;2023-09-30T00:17:29;16.50;1.00
11650;DHT22;5881;48.522;7.682;2023-09-30T00:19:54;16.50;99.90
11650;DHT22;5881;48.522;7.682;2023-09-30T00:22:20;16.40;1.00
11650;DHT22;5881;48.522;7.682;2023-09-30T00:24:45;16.40;99.90
11650;DHT22;5881;48.522;7.682;2023-09-30T00:27:11;16.40;99.90
11650;DHT22;5881;48.522;7.682;2023-09-30T00:29:37;16.30;1.00
11650;DHT22;5881;48.522;7.682;2023-09-30T00:32:03;16.30;99.90
11650;DHT22;5881;48.522;7.682;2023-09-30T00:34:28;16.20;1.00
11650;DHT22;5881;48.522;7.682;2023-09-30T00:36:57;16.20;1.00
11650;DHT22;5881;48.522;7.682;2023-09-30T00:39:22;16.20;1.00
11650;DHT22;5881;48.522;7.682;2023-09-30T00:41:48;16.20;99.90
11650;DHT22;5881;48.522;7.682;2023-09-30T00:44:13;16.10;1.00
11650;DHT22;5881;48.522;7.682;2023-09-30T00:46:40;16.10;1.00
11650;DHT22;5881;48.522;7.682;2023-09-30T00:49:07;16.00;1.00
11650;DHT22;5881;48.522;7.682;2023-09-30T00:51:33;16.00;1.00
11650;DHT22;5881;48.522;7.682;2023-09-30T00:53:59;15.90;1.00
11650;DHT22;5881;48.522;7.682;2023-09-30T00:56:27;16.00;99.90
11650;DHT22;5881;48.522;7.682;2023-09-30T00:58:54;16.00;1.00
11650;DHT22;5881;48.522;7.682;2023-09-30T01:01:20;16.00;1.00
11650;DHT22;5881;48.522;7.682;2023-09-30T01:03:46;16.00;1.00
11650;DHT22;5881;48.522;7.682;2023-09-30T01:06:12;15.90;1.00
11650;DHT22;5881;48.522;7.682;2023-09-30T01:08:38;15.90;1.00
11650;DHT22;5881;48.522;7.682;2023-09-30T01:11:05;15.90;1.00
11650;DHT22;5881;48.522;7.682;2023-09-30T01:13:35;15.90;1.00
11650;DHT22;5881;48.522;7.682;2023-09-30T01:16:08;15.90;99.90
11650;DHT22;5881;48.522;7.682;2023-09-30T01:18:38;15.90;1.00
11650;DHT22;5881;48.522;7.682;2023-09-30T01:21:05;15.80;99.90
11650;DHT22;5881;48.522;7.682;2023-09-30T01:23:32;15.80;1.00
11650;DHT22;5881;48.522;7.682;2023-09-30T01:26:06;15.80;1.00
11650;DHT22;5881;48.522;7.682;2023-09-30T01:28:32;15.80;60.30
11650;DHT22;5881;48.522;7.682;2023-09-30T01:30:58;15.80;67.70
11650;DHT22;5881;48.522;7.682;2023-09-30T01:33:24;15.70;99.90
11650;DHT22;5881;48.522;7.682;2023-09-30T01:35:50;15.70;26.50
11650;DHT22;5881;48.522;7.682;2023-09-30T01:38:15;15.70;99.90
11650;DHT22;5881;48.522;7.682;2023-09-30T01:40:41;15.70;99.90
11650;DHT22;5881;48.522;7.682;2023-09-30T01:43:07;15.60;99.90
11650;DHT22;5881;48.522;7.682;2023-09-30T01:45:33;15.50;1.00
11650;DHT22;5881;48.522;7.682;2023-09-30T01:48:01;15.50;1.00
11650;DHT22;5881;48.522;7.682;2023-09-30T01:50:27;15.50;1.00
11650;DHT22;5881;48.522;7.682;2023-09-30T01:52:52;15.50;93.20
11650;DHT22;5881;48.522;7.682;2023-09-30T01:55:18;15.50;1.00
11650;DHT22;5881;48.522;7.682;2023-09-30T01:57:44;15.50;99.90
11650;DHT22;5881;48.522;7.682;2023-09-30T02:00:12;15.40;99.90
11650;DHT22;5881;48.522;7.682;2023-09-30T02:02:38;15.50;99.90
11650;DHT22;5881;48.522;7.682;2023-09-30T02:05:08;15.50;99.90
11650;DHT22;5881;48.522;7.682;2023-09-30T02:07:34;15.40;99.90
11650;DHT22;5881;48.522;7.682;2023-09-30T02:10:00;15.50;99.90
11650;DHT22;5881;48.522;7.682;2023-09-30T02:12:27;15.50;99.90
11650;DHT22;5881;48.522;7.682;2023-09-30T02:14:54;15.50;99.90
11650;DHT22;5881;48.522;7.682;2023-09-30T02:17:19;15.50;99.90
11650;DHT22;5881;48.522;7.682;2023-09-30T02:19:45;15.50;99.90
11650;DHT22;5881;48.522;7.682;2023-09-30T02:22:11;15.60;99.90
11650;DHT22;5881;48.522;7.682;2023-09-30T02:24:37;15.80;99.90
11650;DHT22;5881;48.522;7.682;2023-09-30T02:27:05;15.90;99.90
11650;DHT22;5881;48.522;7.682;2023-09-30T02:29:31;16.00;99.90
11650;DHT22;5881;48.522;7.682;2023-09-30T02:31:57;16.10;99.90
11650;DHT22;5881;48.522;7.682;2023-09-30T02:34:23;16.10;99.90
11650;DHT22;5881;48.522;7.682;2023-09-30T02:36:49;16.00;99.90
11650;DHT22;5881;48.522;7.682;2023-09-30T02:39:15;16.00;99.90
11650;DHT22;5881;48.522;7.682;2023-09-30T02:41:42;16.10;99.90
11650;DHT22;5881;48.522;7.682;2023-09-30T02:44:08;16.10;99.90
11650;DHT22;5881;48.522;7.682;2023-09-30T02:46:34;16.10;99.90
11650;DHT22;5881;48.522;7.682;2023-09-30T02:49:03;16.00;99.90
11650;DHT22;5881;48.522;7.682;2023-09-30T02:51:29;16.00;99.90
11650;DHT22;5881;48.522;7.682;2023-09-30T02:53:55;16.00;99.90
11650;DHT22;5881;48.522;7.682;2023-09-30T02:56:21;16.10;99.90
11650;DHT22;5881;48.522;7.682;2023-09-30T02:58:50;16.10;99.90
11650;DHT22;5881;48.522;7.682;2023-09-30T03:01:17;16.20;99.90
11650;DHT22;5881;48.522;7.682;2023-09-30T03:03:43;16.20;99.90
11650;DHT22;5881;48.522;7.682;2023-09-30T03:06:12;16.20;99.90
11650;DHT22;5881;48.522;7.682;2023-09-30T03:08:37;16.10;99.90
11650;DHT22;5881;48.522;7.682;2023-09-30T03:11:03;16.10;99.90
11650;DHT22;5881;48.522;7.682;2023-09-30T03:13:33;16.10;99.90
11650;DHT22;5881;48.522;7.682;2023-09-30T03:15:58;16.10;99.90
11650;DHT22;5881;48.522;7.682;2023-09-30T03:18:24;16.00;99.90
11650;DHT22;5881;48.522;7.682;2023-09-30T03:21:02;16.00;99.90
11650;DHT22;5881;48.522;7.682;2023-09-30T03:23:37;15.90;99.90
11650;DHT22;5881;48.522;7.682;2023-09-30T03:26:04;15.80;99.90
11650;DHT22;5881;48.522;7.682;2023-09-30T03:28:29;15.80;99.90
11650;DHT22;5881;48.522;7.682;2023-09-30T03:30:55;15.70;99.90
11650;DHT22;5881;48.522;7.682;2023-09-30T03:33:22;15.70;99.90
11650;DHT22;5881;48.522;7.682;2023-09-30T03:35:48;15.60;99.90
11650;DHT22;5881;48.522;7.682;2023-09-30T03:38:17;15.60;99.90
11650;DHT22;5881;48.522;7.682;2023-09-30T03:40:48;15.60;99.90
11650;DHT22;5881;48.522;7.682;2023-09-30T03:43:14;15.60;99.90
11650;DHT22;5881;48.522;7.682;2023-09-30T03:45:40;15.60;99.90
11650;DHT22;5881;48.522;7.682;2023-09-30T03:48:07;15.70;99.90
11650;DHT22;5881;48.522;7.682;2023-09-30T03:50:32;15.80;99.90
11650;DHT22;5881;48.522;7.682;2023-09-30T03:53:05;15.80;99.90
11650;DHT22;5881;48.522;7.682;2023-09-30T03:55:32;15.80;99.90
11650;DHT22;5881;48.522;7.682;2023-09-30T03:57:59;15.70;99.90
11650;DHT22;5881;48.522;7.682;2023-09-30T04:00:24;15.70;99.90
11650;DHT22;5881;48.522;7.682;2023-09-30T04:02:51;15.70;99.90
11650;DHT22;5881;48.522;7.682;2023-09-30T04:05:24;15.60;99.90
11650;DHT22;5881;48.522;7.682;2023-09-30T04:07:59;15.60;99.90
11650;DHT22;5881;48.522;7.682;2023-09-30T04:10:25;15.60;99.90
11650;DHT22;5881;48.522;7.682;2023-09-30T04:12:51;15.50;99.90
11650;DHT22;5881;48.522;7.682;2023-09-30T04:15:18;15.60;99.90
11650;DHT22;5881;48.522;7.682;2023-09-30T04:17:44;15.60;99.90
11650;DHT22;5881;48.522;7.682;2023-09-30T04:20:09;15.60;99.90
11650;DHT22;5881;48.522;7.682;2023-09-30T04:22:37;15.50;99.90
11650;DHT22;5881;48.522;7.682;2023-09-30T04:25:03;15.60;99.90
11650;DHT22;5881;48.522;7.682;2023-09-30T04:27:34;15.50;99.90
11650;DHT22;5881;48.522;7.682;2023-09-30T04:29:59;15.50;99.90
11650;DHT22;5881;48.522;7.682;2023-09-30T04:32:25;15.60;99.90
11650;DHT22;5881;48.522;7.682;2023-09-30T04:34:52;15.60;99.90
11650;DHT22;5881;48.522;7.682;2023-09-30T04:37:18;15.70;99.90
11650;DHT22;5881;48.522;7.682;2023-09-30T04:39:44;15.60;99.90
11650;DHT22;5881;48.522;7.682;2023-09-30T04:42:10;15.70;99.90
11650;DHT22;5881;48.522;7.682;2023-09-30T04:44:37;15.60;99.90
11650;DHT22;5881;48.522;7.682;2023-09-30T04:47:04;15.50;99.90
11650;DHT22;5881;48.522;7.682;2023-09-30T04:49:30;15.50;99.90
11650;DHT22;5881;48.522;7.682;2023-09-30T04:51:56;15.40;99.90
11650;DHT22;5881;48.522;7.682;2023-09-30T04:54:22;15.40;99.90
11650;DHT22;5881;48.522;7.682;2023-09-30T04:56:47;15.40;99.90
11650;DHT22;5881;48.522;7.682;2023-09-30T04:59:13;15.40;99.90
11650;DHT22;5881;48.522;7.682;2023-09-30T05:01:39;15.30;99.90
11650;DHT22;5881;48.522;7.682;2023-09-30T05:04:05;15.30;99.90
11650;DHT22;5881;48.522;7.682;2023-09-30T05:06:32;15.30;99.90
11650;DHT22;5881;48.522;7.682;2023-09-30T05:08:58;15.40;99.90
11650;DHT22;5881;48.522;7.682;2023-09-30T05:11:24;15.40;99.90
11650;DHT22;5881;48.522;7.682;2023-09-30T05:13:50;15.40;99.90
11650;DHT22;5881;48.522;7.682;2023-09-30T05:16:17;15.50;99.90
11650;DHT22;5881;48.522;7.682;2023-09-30T05:18:43;15.40;99.90
11650;DHT22;5881;48.522;7.682;2023-09-30T05:21:09;15.30;99.90
11650;DHT22;5881;48.522;7.682;2023-09-30T05:23:36;15.30;99.90
11650;DHT22;5881;48.522;7.682;2023-09-30T05:26:02;15.40;99.90
11650;DHT22;5881;48.522;7.682;2023-09-30T05:28:28;15.40;99.90
11650;DHT22;5881;48.522;7.682;2023-09-30T05:30:53;15.40;99.90
11650;DHT22;5881;48.522;7.682;2023-09-30T05:33:19;15.40;99.90
11650;DHT22;5881;48.522;7.682;2023-09-30T05:35:44;15.40;99.90
11650;DHT22;5881;48.522;7.682;2023-09-30T05:38:10;15.50;99.90
11650;DHT22;5881;48.522;7.682;2023-09-30T05:40:37;15.50;99.90
11650;DHT22;5881;48.522;7.682;2023-09-30T05:43:03;15.50;99.90
11650;DHT22;5881;48.522;7.682;2023-09-30T05:45:31;15.50;99.90
11650;DHT22;5881;48.522;7.682;2023-09-30T05:48:02;15.50;99.90
11650;DHT22;5881;48.522;7.682;2023-09-30T05:50:31;15.60;99.90
11650;DHT22;5881;48.522;7.682;2023-09-30T05:52:57;15.70;99.90
11650;DHT22;5881;48.522;7.682;2023-09-30T05:55:23;15.70;99.90
11650;DHT22;5881;48.522;7.682;2023-09-30T05:57:50;15.70;99.90
11650;DHT22;5881;48.522;7.682;2023-09-30T06:00:18;15.70;99.90
11650;DHT22;5881;48.522;7.682;2023-09-30T06:02:48;15.70;99.90
11650;DHT22;5881;48.522;7.682;2023-09-30T06:05:15;15.80;99.90
11650;DHT22;5881;48.522;7.682;2023-09-30T06:07:51;15.80;99.90
11650;DHT22;5881;48.522;7.682;2023-09-30T06:10:17;15.80;99.90
11650;DHT22;5881;48.522;7.682;2023-09-30T06:12:53;15.80;99.90
11650;DHT22;5881;48.522;7.682;2023-09-30T06:15:22;15.80;99.90
11650;DHT22;5881;48.522;7.682;2023-09-30T06:17:51;15.90;99.90
11650;DHT22;5881;48.522;7.682;2023-09-30T06:20:20;15.90;99.90
11650;DHT22;5881;48.522;7.682;2023-09-30T06:22:48;15.90;99.90
11650;DHT22;5881;48.522;7.682;2023-09-30T06:25:19;16.10;99.90
11650;DHT22;5881;48.522;7.682;2023-09-30T06:27:47;16.20;99.90
11650;DHT22;5881;48.522;7.682;2023-09-30T06:30:17;16.20;99.90
11650;DHT22;5881;48.522;7.682;2023-09-30T06:32:44;16.40;99.90
11650;DHT22;5881;48.522;7.682;2023-09-30T06:35:11;16.30;99.90
11650;DHT22;5881;48.522;7.682;2023-09-30T06:37:37;16.40;99.90
11650;DHT22;5881;48.522;7.682;2023-09-30T06:40:07;16.50;99.90
11650;DHT22;5881;48.522;7.682;2023-09-30T06:42:34;16.70;99.90
11650;DHT22;5881;48.522;7.682;2023-09-30T06:45:03;17.00;99.90
11650;DHT22;5881;48.522;7.682;2023-09-30T06:47:36;17.60;99.90
11650;DHT22;5881;48.522;7.682;2023-09-30T06:50:03;18.10;1.00
11650;DHT22;5881;48.522;7.682;2023-09-30T06:52:38;18.20;1.00
11650;DHT22;5881;48.522;7.682;2023-09-30T06:55:08;18.20;1.00
11650;DHT22;5881;48.522;7.682;2023-09-30T06:57:35;17.90;1.00
11650;DHT22;5881;48.522;7.682;2023-09-30T07:00:04;17.80;1.00
11650;DHT22;5881;48.522;7.682;2023-09-30T07:02:34;17.80;1.00
11650;DHT22;5881;48.522;7.682;2023-09-30T07:04:59;17.90;1.00
11650;DHT22;5881;48.522;7.682;2023-09-30T07:07:25;17.90;1.00
11650;DHT22;5881;48.522;7.682;2023-09-30T07:09:50;18.10;1.00
11650;DHT22;5881;48.522;7.682;2023-09-30T07:12:16;18.10;1.00
11650;DHT22;5881;48.522;7.682;2023-09-30T07:14:42;17.90;1.00
11650;DHT22;5881;48.522;7.682;2023-09-30T07:17:07;17.90;1.00
11650;DHT22;5881;48.522;7.682;2023-09-30T07:19:33;17.70;1.00
11650;DHT22;5881;48.522;7.682;2023-09-30T07:21:58;18.00;1.00
11650;DHT22;5881;48.522;7.682;2023-09-30T07:24:24;18.10;1.00
11650;DHT22;5881;48.522;7.682;2023-09-30T07:26:50;18.00;1.00
11650;DHT22;5881;48.522;7.682;2023-09-30T07:29:16;18.20;1.00
11650;DHT22;5881;48.522;7.682;2023-09-30T07:31:41;18.30;1.00
11650;DHT22;5881;48.522;7.682;2023-09-30T07:34:07;18.90;1.00
11650;DHT22;5881;48.522;7.682;2023-09-30T07:36:33;19.20;99.90
11650;DHT22;5881;48.522;7.682;2023-09-30T07:38:58;19.10;99.90
11650;DHT22;5881;48.522;7.682;2023-09-30T07:41:26;19.20;99.90
11650;DHT22;5881;48.522;7.682;2023-09-30T07:43:52;19.70;99.90
11650;DHT22;5881;48.522;7.682;2023-09-30T07:46:17;20.30;99.90
11650;DHT22;5881;48.522;7.682;2023-09-30T07:48:43;21.00;99.90
11650;DHT22;5881;48.522;7.682;2023-09-30T07:51:09;21.00;99.90
11650;DHT22;5881;48.522;7.682;2023-09-30T07:53:38;21.30;99.90
11650;DHT22;5881;48.522;7.682;2023-09-30T07:56:05;21.90;99.90
11650;DHT22;5881;48.522;7.682;2023-09-30T07:58:31;22.10;99.90
11650;DHT22;5881;48.522;7.682;2023-09-30T08:00:57;22.50;99.90
11650;DHT22;5881;48.522;7.682;2023-09-30T08:03:23;22.60;99.90
11650;DHT22;5881;48.522;7.682;2023-09-30T08:05:48;23.00;97.90
11650;DHT22;5881;48.522;7.682;2023-09-30T08:08:14;23.40;86.60
11650;DHT22;5881;48.522;7.682;2023-09-30T08:10:40;23.40;28.60
11650;DHT22;5881;48.522;7.682;2023-09-30T08:13:05;23.60;25.60
11650;DHT22;5881;48.522;7.682;2023-09-30T08:15:31;23.20;22.10
11650;DHT22;5881;48.522;7.682;2023-09-30T08:17:56;24.30;7.70
11650;DHT22;5881;48.522;7.682;2023-09-30T08:20:22;23.60;4.70
11650;DHT22;5881;48.522;7.682;2023-09-30T08:22:48;23.80;1.50
11650;DHT22;5881;48.522;7.682;2023-09-30T08:25:13;24.30;1.60
11650;DHT22;5881;48.522;7.682;2023-09-30T08:27:39;24.70;1.00
11650;DHT22;5881;48.522;7.682;2023-09-30T08:30:05;23.80;1.00
11650;DHT22;5881;48.522;7.682;2023-09-30T08:32:35;24.50;1.00
11650;DHT22;5881;48.522;7.682;2023-09-30T08:35:02;24.00;1.00
11650;DHT22;5881;48.522;7.682;2023-09-30T08:37:29;24.90;1.00
11650;DHT22;5881;48.522;7.682;2023-09-30T08:39:55;25.10;1.00
11650;DHT22;5881;48.522;7.682;2023-09-30T08:42:22;24.60;1.00
11650;DHT22;5881;48.522;7.682;2023-09-30T08:44:53;25.30;1.00
11650;DHT22;5881;48.522;7.682;2023-09-30T08:47:20;25.60;1.00
11650;DHT22;5881;48.522;7.682;2023-09-30T08:49:48;25.30;1.00
11650;DHT22;5881;48.522;7.682;2023-09-30T08:52:16;25.60;1.00
11650;DHT22;5881;48.522;7.682;2023-09-30T08:54:42;25.10;1.00
11650;DHT22;5881;48.522;7.682;2023-09-30T08:57:12;25.70;1.00
11650;DHT22;5881;48.522;7.682;2023-09-30T08:59:41;25.40;1.00
11650;DHT22;5881;48.522;7.682;2023-09-30T09:02:08;26.30;1.00
11650;DHT22;5881;48.522;7.682;2023-09-30T09:04:36;25.10;1.00
11650;DHT22;5881;48.522;7.682;2023-09-30T09:07:01;25.00;1.00
11650;DHT22;5881;48.522;7.682;2023-09-30T09:09:28;24.20;1.00
11650;DHT22;5881;48.522;7.682;2023-09-30T09:11:53;24.00;1.00
11650;DHT22;5881;48.522;7.682;2023-09-30T09:14:19;25.10;1.00
11650;DHT22;5881;48.522;7.682;2023-09-30T09:17:01;26.10;1.00
11650;DHT22;5881;48.522;7.682;2023-09-30T09:19:26;26.30;1.00
11650;DHT22;5881;48.522;7.682;2023-09-30T09:21:56;26.90;1.00
11650;DHT22;5881;48.522;7.682;2023-09-30T09:24:29;26.30;1.00
11650;DHT22;5881;48.522;7.682;2023-09-30T09:27:12;25.90;1.00
11650;DHT22;5881;48.522;7.682;2023-09-30T09:29:42;26.20;1.00
11650;DHT22;5881;48.522;7.682;2023-09-30T09:32:16;26.30;1.00
11650;DHT22;5881;48.522;7.682;2023-09-30T09:34:43;26.30;1.00
11650;DHT22;5881;48.522;7.682;2023-09-30T09:37:14;25.60;1.00
11650;DHT22;5881;48.522;7.682;2023-09-30T09:39:48;27.50;1.00
11650;DHT22;5881;48.522;7.682;2023-09-30T09:42:30;27.40;1.00
11650;DHT22;5881;48.522;7.682;2023-09-30T09:44:59;28.60;1.00
11650;DHT22;5881;48.522;7.682;2023-09-30T09:47:24;28.10;1.00
11650;DHT22;5881;48.522;7.682;2023-09-30T09:49:51;25.40;1.00
11650;DHT22;5881;48.522;7.682;2023-09-30T09:52:19;24.20;1.00
11650;DHT22;5881;48.522;7.682;2023-09-30T09:54:45;23.80;1.00
11650;DHT22;5881;48.522;7.682;2023-09-30T09:57:14;23.00;1.00
11650;DHT22;5881;48.522;7.682;2023-09-30T09:59:43;22.90;1.00
11650;DHT22;5881;48.522;7.682;2023-09-30T10:02:12;23.20;1.00
11650;DHT22;5881;48.522;7.682;2023-09-30T10:04:45;22.80;1.00
11650;DHT22;5881;48.522;7.682;2023-09-30T10:07:21;24.10;1.00
11650;DHT22;5881;48.522;7.682;2023-09-30T10:09:49;23.60;1.00
11650;DHT22;5881;48.522;7.682;2023-09-30T10:12:17;25.80;1.00
11650;DHT22;5881;48.522;7.682;2023-09-30T10:14:43;25.10;1.00
11650;DHT22;5881;48.522;7.682;2023-09-30T10:17:10;25.00;1.00
11650;DHT22;5881;48.522;7.682;2023-09-30T10:19:35;26.80;1.00
11650;DHT22;5881;48.522;7.682;2023-09-30T10:24:46;25.70;1.00
11650;DHT22;5881;48.522;7.682;2023-09-30T10:29:47;27.60;1.00
11650;DHT22;5881;48.522;7.682;2023-09-30T10:32:12;27.80;1.00
11650;DHT22;5881;48.522;7.682;2023-09-30T10:34:40;25.40;1.00
11650;DHT22;5881;48.522;7.682;2023-09-30T10:37:22;24.20;1.00
11650;DHT22;5881;48.522;7.682;2023-09-30T10:40:06;23.30;1.00
11650;DHT22;5881;48.522;7.682;2023-09-30T10:45:52;23.20;1.00
11650;DHT22;5881;48.522;7.682;2023-09-30T10:50:52;23.00;1.00
11650;DHT22;5881;48.522;7.682;2023-09-30T10:53:19;23.20;1.00
11650;DHT22;5881;48.522;7.682;2023-09-30T10:55:46;23.40;1.00
11650;DHT22;5881;48.522;7.682;2023-09-30T10:58:14;25.10;1.00
11650;DHT22;5881;48.522;7.682;2023-09-30T11:00:52;23.80;1.00
11650;DHT22;5881;48.522;7.682;2023-09-30T11:03:20;25.10;1.00
11650;DHT22;5881;48.522;7.682;2023-09-30T11:05:50;25.70;1.00
11650;DHT22;5881;48.522;7.682;2023-09-30T11:08:17;25.00;1.00
11650;DHT22;5881;48.522;7.682;2023-09-30T11:10:51;26.20;1.00
11650;DHT22;5881;48.522;7.682;2023-09-30T11:13:19;27.50;1.00
11650;DHT22;5881;48.522;7.682;2023-09-30T11:15:46;27.70;1.00
11650;DHT22;5881;48.522;7.682;2023-09-30T11:18:18;27.60;1.00
11650;DHT22;5881;48.522;7.682;2023-09-30T11:20:44;26.90;1.00
11650;DHT22;5881;48.522;7.682;2023-09-30T11:23:13;26.90;1.00
11650;DHT22;5881;48.522;7.682;2023-09-30T11:25:40;26.70;1.00
11650;DHT22;5881;48.522;7.682;2023-09-30T11:28:19;26.40;1.00
11650;DHT22;5881;48.522;7.682;2023-09-30T11:30:55;25.50;1.00
11650;DHT22;5881;48.522;7.682;2023-09-30T11:33:21;24.80;1.00
11650;DHT22;5881;48.522;7.682;2023-09-30T11:36:05;25.30;1.00
11650;DHT22;5881;48.522;7.682;2023-09-30T11:38:32;26.10;1.00
11650;DHT22;5881;48.522;7.682;2023-09-30T11:41:01;26.00;1.00
11650;DHT22;5881;48.522;7.682;2023-09-30T11:43:33;25.80;1.00
11650;DHT22;5881;48.522;7.682;2023-09-30T11:46:11;25.50;1.00
11650;DHT22;5881;48.522;7.682;2023-09-30T11:48:38;25.60;1.00
11650;DHT22;5881;48.522;7.682;2023-09-30T11:51:05;25.30;1.00
11650;DHT22;5881;48.522;7.682;2023-09-30T11:53:32;24.70;1.00
11650;DHT22;5881;48.522;7.682;2023-09-30T11:56:00;24.60;1.00
11650;DHT22;5881;48.522;7.682;2023-09-30T11:58:28;25.00;1.00
11650;DHT22;5881;48.522;7.682;2023-09-30T12:00:55;25.40;1.00
11650;DHT22;5881;48.522;7.682;2023-09-30T12:03:23;25.30;1.00
11650;DHT22;5881;48.522;7.682;2023-09-30T12:05:48;24.80;1.00
11650;DHT22;5881;48.522;7.682;2023-09-30T12:08:14;24.60;1.00
11650;DHT22;5881;48.522;7.682;2023-09-30T12:10:40;25.00;1.00
11650;DHT22;5881;48.522;7.682;2023-09-30T12:13:06;24.80;1.00
11650;DHT22;5881;48.522;7.682;2023-09-30T12:15:31;24.40;1.00
11650;DHT22;5881;48.522;7.682;2023-09-30T12:17:57;24.30;1.00
11650;DHT22;5881;48.522;7.682;2023-09-30T12:20:22;24.10;1.00
11650;DHT22;5881;48.522;7.682;2023-09-30T12:22:49;24.40;1.00
11650;DHT22;5881;48.522;7.682;2023-09-30T12:25:14;24.40;1.00
11650;DHT22;5881;48.522;7.682;2023-09-30T12:27:40;24.70;1.00
11650;DHT22;5881;48.522;7.682;2023-09-30T12:30:06;24.20;1.00
11650;DHT22;5881;48.522;7.682;2023-09-30T12:32:32;24.00;1.00
11650;DHT22;5881;48.522;7.682;2023-09-30T12:34:58;24.00;1.00
11650;DHT22;5881;48.522;7.682;2023-09-30T12:37:23;23.90;1.00
11650;DHT22;5881;48.522;7.682;2023-09-30T12:39:49;23.90;1.00
11650;DHT22;5881;48.522;7.682;2023-09-30T12:42:15;24.10;1.00
11650;DHT22;5881;48.522;7.682;2023-09-30T12:44:41;24.10;1.00
11650;DHT22;5881;48.522;7.682;2023-09-30T12:47:07;23.60;1.00
11650;DHT22;5881;48.522;7.682;2023-09-30T12:49:33;23.80;1.00
11650;DHT22;5881;48.522;7.682;2023-09-30T12:51:58;23.80;1.00
11650;DHT22;5881;48.522;7.682;2023-09-30T12:54:24;24.00;1.00
11650;DHT22;5881;48.522;7.682;2023-09-30T12:56:51;23.90;1.00
11650;DHT22;5881;48.522;7.682;2023-09-30T12:59:17;23.90;1.00
11650;DHT22;5881;48.522;7.682;2023-09-30T13:01:49;23.60;1.00
11650;DHT22;5881;48.522;7.682;2023-09-30T13:04:15;23.50;1.00
11650;DHT22;5881;48.522;7.682;2023-09-30T13:06:41;23.40;1.00
11650;DHT22;5881;48.522;7.682;2023-09-30T13:09:06;23.70;1.00
11650;DHT22;5881;48.522;7.682;2023-09-30T13:11:34;23.80;1.00
11650;DHT22;5881;48.522;7.682;2023-09-30T13:14:00;23.60;1.00
11650;DHT22;5881;48.522;7.682;2023-09-30T13:16:25;23.50;1.00
11650;DHT22;5881;48.522;7.682;2023-09-30T13:18:51;23.60;1.00
11650;DHT22;5881;48.522;7.682;2023-09-30T13:21:19;23.70;1.00
11650;DHT22;5881;48.522;7.682;2023-09-30T13:23:45;23.70;1.00
11650;DHT22;5881;48.522;7.682;2023-09-30T13:26:11;23.60;1.00
11650;DHT22;5881;48.522;7.682;2023-09-30T13:28:37;23.60;1.00
11650;DHT22;5881;48.522;7.682;2023-09-30T13:31:03;23.00;1.00
11650;DHT22;5881;48.522;7.682;2023-09-30T13:33:29;23.10;1.00
11650;DHT22;5881;48.522;7.682;2023-09-30T13:35:55;23.10;1.00
11650;DHT22;5881;48.522;7.682;2023-09-30T13:38:21;23.10;1.00
11650;DHT22;5881;48.522;7.682;2023-09-30T13:40:47;23.20;1.00
11650;DHT22;5881;48.522;7.682;2023-09-30T13:43:12;23.10;1.00
11650;DHT22;5881;48.522;7.682;2023-09-30T13:45:38;23.20;1.00
11650;DHT22;5881;48.522;7.682;2023-09-30T13:48:04;23.20;1.00
11650;DHT22;5881;48.522;7.682;2023-09-30T13:50:30;22.90;1.00
11650;DHT22;5881;48.522;7.682;2023-09-30T13:52:55;22.90;1.00
11650;DHT22;5881;48.522;7.682;2023-09-30T13:55:21;23.10;1.00
11650;DHT22;5881;48.522;7.682;2023-09-30T13:57:47;23.20;1.00
11650;DHT22;5881;48.522;7.682;2023-09-30T14:00:14;23.10;1.00
11650;DHT22;5881;48.522;7.682;2023-09-30T14:02:41;23.10;1.00
11650;DHT22;5881;48.522;7.682;2023-09-30T14:05:08;23.10;1.00
11650;DHT22;5881;48.522;7.682;2023-09-30T14:07:37;23.10;1.00
11650;DHT22;5881;48.522;7.682;2023-09-30T14:10:03;22.60;1.00
11650;DHT22;5881;48.522;7.682;2023-09-30T14:12:32;22.60;1.00
11650;DHT22;5881;48.522;7.682;2023-09-30T14:14:59;22.50;1.00
11650;DHT22;5881;48.522;7.682;2023-09-30T14:17:25;22.50;1.00
11650;DHT22;5881;48.522;7.682;2023-09-30T14:19:51;22.70;1.00
11650;DHT22;5881;48.522;7.682;2023-09-30T14:22:16;22.80;1.00
11650;DHT22;5881;48.522;7.682;2023-09-30T14:24:42;22.70;1.00
11650;DHT22;5881;48.522;7.682;2023-09-30T14:27:08;22.70;1.00
11650;DHT22;5881;48.522;7.682;2023-09-30T14:29:34;22.80;1.00
11650;DHT22;5881;48.522;7.682;2023-09-30T14:31:59;22.90;1.00
11650;DHT22;5881;48.522;7.682;2023-09-30T14:34:25;22.80;1.00
11650;DHT22;5881;48.522;7.682;2023-09-30T14:36:51;22.70;1.00
11650;DHT22;5881;48.522;7.682;2023-09-30T14:39:17;23.00;1.00
11650;DHT22;5881;48.522;7.682;2023-09-30T14:41:44;22.80;1.00
11650;DHT22;5881;48.522;7.682;2023-09-30T14:44:10;22.50;1.00
11650;DHT22;5881;48.522;7.682;2023-09-30T14:46:40;22.30;1.00
11650;DHT22;5881;48.522;7.682;2023-09-30T14:49:06;22.10;1.00
11650;DHT22;5881;48.522;7.682;2023-09-30T14:51:33;22.10;1.00
11650;DHT22;5881;48.522;7.682;2023-09-30T14:53:58;22.00;1.00
11650;DHT22;5881;48.522;7.682;2023-09-30T14:56:24;22.00;1.00
11650;DHT22;5881;48.522;7.682;2023-09-30T14:58:50;21.90;1.00
11650;DHT22;5881;48.522;7.682;2023-09-30T15:01:15;21.80;1.00
11650;DHT22;5881;48.522;7.682;2023-09-30T15:03:41;21.70;1.00
11650;DHT22;5881;48.522;7.682;2023-09-30T15:06:07;21.80;1.00
11650;DHT22;5881;48.522;7.682;2023-09-30T15:08:33;21.90;1.00
11650;DHT22;5881;48.522;7.682;2023-09-30T15:10:59;22.00;1.00
11650;DHT22;5881;48.522;7.682;2023-09-30T15:13:26;21.80;1.00
11650;DHT22;5881;48.522;7.682;2023-09-30T15:15:51;21.80;1.00
11650;DHT22;5881;48.522;7.682;2023-09-30T15:18:17;21.80;1.00
11650;DHT22;5881;48.522;7.682;2023-09-30T15:20:43;21.80;1.00
11650;DHT22;5881;48.522;7.682;2023-09-30T15:23:13;21.80;1.00
11650;DHT22;5881;48.522;7.682;2023-09-30T15:25:42;21.80;1.00
11650;DHT22;5881;48.522;7.682;2023-09-30T15:28:12;21.90;1.00
11650;DHT22;5881;48.522;7.682;2023-09-30T15:30:39;21.70;1.00
11650;DHT22;5881;48.522;7.682;2023-09-30T15:33:05;21.70;1.00
11650;DHT22;5881;48.522;7.682;2023-09-30T15:35:31;21.70;1.00
11650;DHT22;5881;48.522;7.682;2023-09-30T15:37:57;21.70;1.00
11650;DHT22;5881;48.522;7.682;2023-09-30T15:40:23;21.70;1.00
11650;DHT22;5881;48.522;7.682;2023-09-30T15:42:49;21.60;1.00
11650;DHT22;5881;48.522;7.682;2023-09-30T15:45:14;21.60;1.00
11650;DHT22;5881;48.522;7.682;2023-09-30T15:47:43;21.60;1.00
11650;DHT22;5881;48.522;7.682;2023-09-30T15:50:09;21.60;1.00
11650;DHT22;5881;48.522;7.682;2023-09-30T15:52:35;21.50;1.00
11650;DHT22;5881;48.522;7.682;2023-09-30T15:55:00;21.40;1.00
11650;DHT22;5881;48.522;7.682;2023-09-30T15:57:26;21.40;1.00
11650;DHT22;5881;48.522;7.682;2023-09-30T15:59:52;21.40;1.00
11650;DHT22;5881;48.522;7.682;2023-09-30T16:02:17;21.30;1.00
11650;DHT22;5881;48.522;7.682;2023-09-30T16:04:43;21.30;1.00